Time;durP1;ratioP1;P1;durP2;ratioP2;P2;SDS_P1;SDS_P2;PMS_P1;PMS_P2;Temp;Humidity;BMP_temperature;BMP_pressure;BME280_temperature;BME280_humidity;BME280_pressure;Samples;Min_cycle;Max_cycle;Signal;HPM_P1;HPM_P2
2023/04/11 00:00:16;;;;;;;2.67;2.07;;;9.90;99.90;;;;;;5054128;28;20882;-90
2023/04/11 00:02:42;;;;;;;4.90;2.13;;;9.80;99.90;;;;;;5046355;28;20921;-90
2023/04/11 00:05:09;;;;;;;3.30;1.80;;;9.80;99.90;;;;;;5045335;28;20886;-91
2023/04/11 00:07:36;;;;;;;2.90;2.17;;;9.70;99.90;;;;;;5054087;28;20517;-92
2023/04/11 00:10:03;;;;;;;3.20;2.40;;;9.70;99.90;;;;;;5045734;28;20880;-91
2023/04/11 00:12:29;;;;;;;2.10;2.00;;;9.70;99.90;;;;;;5039461;28;20920;-90
2023/04/11 00:14:56;;;;;;;2.67;2.10;;;9.70;99.90;;;;;;5033261;28;20473;-90
2023/04/11 00:17:27;;;;;;;3.47;2.20;;;9.70;99.90;;;;;;5039497;28;20480;-91
2023/04/11 00:19:54;;;;;;;3.63;1.87;;;9.70;99.90;;;;;;5044219;28;21054;-90
2023/04/11 00:22:22;;;;;;;2.33;2.10;;;9.60;99.90;;;;;;5047320;28;20851;-90
2023/04/11 00:24:51;;;;;;;2.27;2.07;;;9.60;99.90;;;;;;5053399;28;20449;-90
2023/04/11 00:27:18;;;;;;;3.10;1.70;;;9.60;99.90;;;;;;5038746;28;20480;-90
2023/04/11 00:29:45;;;;;;;2.77;2.10;;;9.60;99.90;;;;;;5045730;28;20458;-90
2023/04/11 00:32:11;;;;;;;2.07;1.97;;;9.60;99.90;;;;;;5033988;28;20458;-91
2023/04/11 00:34:40;;;;;;;2.20;2.10;;;9.60;99.90;;;;;;5048357;28;20487;-91
2023/04/11 00:37:06;;;;;;;4.60;1.77;;;9.60;99.90;;;;;;5045724;28;21125;-90
2023/04/11 00:39:34;;;;;;;2.00;1.90;;;9.60;99.90;;;;;;5045498;28;20445;-91
2023/04/11 00:42:05;;;;;;;2.27;2.07;;;9.60;99.90;;;;;;5046166;28;20485;-91
2023/04/11 00:44:32;;;;;;;3.83;1.80;;;9.50;99.90;;;;;;5047673;28;20533;-91
2023/04/11 00:47:00;;;;;;;1.90;1.80;;;9.40;99.90;;;;;;5043267;28;20461;-90
2023/04/11 00:49:26;;;;;;;2.03;1.70;;;9.50;99.90;;;;;;5053964;28;20453;-91
2023/04/11 00:51:55;;;;;;;3.33;1.60;;;9.40;99.90;;;;;;5036518;28;20450;-91
2023/04/11 00:54:22;;;;;;;2.27;1.70;;;9.40;99.90;;;;;;5049908;28;20453;-92
2023/04/11 00:56:50;;;;;;;1.93;1.40;;;9.30;99.90;;;;;;5062544;28;20894;-89
2023/04/11 00:59:17;;;;;;;2.13;2.03;;;9.30;99.90;;;;;;5045766;28;20847;-91
2023/04/11 01:01:43;;;;;;;2.10;1.90;;;9.30;99.90;;;;;;5037134;28;20540;-91
2023/04/11 01:04:10;;;;;;;2.50;1.70;;;9.20;99.90;;;;;;5045043;28;20468;-89
2023/04/11 01:06:37;;;;;;;3.10;1.53;;;9.20;99.90;;;;;;5045382;28;20506;-91
2023/04/11 01:09:05;;;;;;;3.77;1.50;;;9.20;99.90;;;;;;5034744;28;20546;-91
2023/04/11 01:11:33;;;;;;;1.70;1.60;;;9.20;99.90;;;;;;5033363;28;20447;-91
2023/04/11 01:14:00;;;;;;;1.80;1.70;;;9.40;99.90;;;;;;5040836;28;20483;-91
2023/04/11 01:16:27;;;;;;;4.10;2.00;;;9.20;99.90;;;;;;5038016;28;20460;-91
2023/04/11 01:18:53;;;;;;;1.90;1.47;;;9.20;99.90;;;;;;5044139;28;20485;-90
2023/04/11 01:21:21;;;;;;;2.37;1.70;;;9.20;99.90;;;;;;5044448;28;20487;-91
2023/04/11 01:23:51;;;;;;;1.63;1.53;;;9.20;99.90;;;;;;5044950;28;20461;-91
2023/04/11 01:26:18;;;;;;;1.87;1.67;;;9.20;99.90;;;;;;5037518;28;20471;-91
2023/04/11 01:28:45;;;;;;;1.70;1.60;;;9.20;99.90;;;;;;5052828;28;20468;-91
2023/04/11 01:31:11;;;;;;;2.00;1.80;;;9.20;99.90;;;;;;5052078;28;20448;-91
2023/04/11 01:33:38;;;;;;;2.70;1.60;;;9.20;99.90;;;;;;5044405;28;20904;-91
2023/04/11 01:36:07;;;;;;;4.43;1.90;;;9.30;99.90;;;;;;5042377;28;20466;-91
2023/04/11 01:38:34;;;;;;;1.60;1.50;;;9.20;99.90;;;;;;5039177;28;20472;-91
2023/04/11 01:41:02;;;;;;;2.13;1.70;;;9.20;99.90;;;;;;5044652;28;20547;-91
2023/04/11 01:43:29;;;;;;;6.13;1.70;;;9.20;99.90;;;;;;5043316;28;20736;-91
2023/04/11 01:45:56;;;;;;;3.00;1.80;;;9.20;99.90;;;;;;5042840;28;20506;-91
2023/04/11 01:48:23;;;;;;;2.53;1.60;;;9.10;99.90;;;;;;5039434;28;20539;-91
2023/04/11 01:50:51;;;;;;;1.77;1.53;;;9.10;99.90;;;;;;5032657;28;20453;-91
2023/04/11 01:53:18;;;;;;;2.03;1.60;;;9.10;99.90;;;;;;5028188;28;20946;-90
2023/04/11 01:55:46;;;;;;;1.70;1.60;;;9.10;99.90;;;;;;5055545;28;22743;-91
2023/04/11 01:58:15;;;;;;;1.77;1.40;;;9.00;99.90;;;;;;5068853;28;20530;-91
2023/04/11 02:00:41;;;;;;;2.50;1.60;;;9.00;99.90;;;;;;5059234;28;20571;-91
2023/04/11 02:03:08;;;;;;;2.67;1.60;;;9.00;99.90;;;;;;5063529;28;20514;-91
2023/04/11 02:05:35;;;;;;;1.93;1.80;;;9.00;99.90;;;;;;5072461;28;20553;-90
2023/04/11 02:08:01;;;;;;;1.93;1.57;;;9.10;99.90;;;;;;5055800;28;20461;-91
2023/04/11 02:10:28;;;;;;;1.67;1.50;;;8.90;99.90;;;;;;5064541;28;20448;-91
2023/04/11 02:12:55;;;;;;;2.00;1.90;;;8.90;99.90;;;;;;5063899;28;20505;-90
2023/04/11 02:15:23;;;;;;;2.07;1.60;;;8.90;99.90;;;;;;5067212;28;20460;-91
2023/04/11 02:17:52;;;;;;;1.87;1.57;;;8.90;99.90;;;;;;5059585;28;20528;-91
2023/04/11 02:20:20;;;;;;;2.73;1.70;;;8.80;99.90;;;;;;5068148;28;20476;-91
2023/04/11 02:22:47;;;;;;;3.30;1.80;;;8.80;99.90;;;;;;5051430;28;20484;-91
2023/04/11 02:25:14;;;;;;;2.43;1.87;;;8.80;99.90;;;;;;5060160;28;20484;-91
2023/04/11 02:27:41;;;;;;;1.60;1.50;;;8.80;99.90;;;;;;5058777;28;20517;-91
2023/04/11 02:30:08;;;;;;;2.10;1.90;;;8.80;99.90;;;;;;5053268;28;20475;-91
2023/04/11 02:32:37;;;;;;;7.23;1.50;;;8.70;99.90;;;;;;5061394;28;20451;-90
2023/04/11 02:35:06;;;;;;;1.60;1.50;;;8.70;99.90;;;;;;5069417;28;20459;-90
2023/04/11 02:37:33;;;;;;;4.47;1.77;;;8.60;99.90;;;;;;5063008;28;20962;-91
2023/04/11 02:40:00;;;;;;;2.70;1.80;;;8.60;99.90;;;;;;5054492;28;21004;-90
2023/04/11 02:42:26;;;;;;;3.47;1.80;;;8.60;99.90;;;;;;5054176;28;20480;-90
2023/04/11 02:44:54;;;;;;;2.93;1.93;;;8.60;99.90;;;;;;5083915;28;20437;-90
2023/04/11 02:47:21;;;;;;;6.40;1.80;;;8.60;99.90;;;;;;5092629;28;20526;-92
2023/04/11 02:49:49;;;;;;;3.00;1.60;;;8.50;99.90;;;;;;5076708;28;20458;-91
2023/04/11 02:52:16;;;;;;;2.20;1.40;;;8.50;99.90;;;;;;5060310;28;20860;-91
2023/04/11 02:54:43;;;;;;;2.43;1.90;;;8.50;99.90;;;;;;5058946;28;20496;-91
2023/04/11 02:57:10;;;;;;;1.80;1.67;;;8.40;99.90;;;;;;5062172;28;20487;-91
2023/04/11 02:59:36;;;;;;;3.40;1.60;;;8.40;99.90;;;;;;5069679;28;20520;-90
2023/04/11 03:02:03;;;;;;;5.80;1.67;;;8.40;99.90;;;;;;5065233;28;20487;-90
2023/04/11 03:04:30;;;;;;;1.63;1.53;;;8.40;99.90;;;;;;5059807;28;20452;-90
2023/04/11 03:06:58;;;;;;;4.07;1.60;;;8.40;99.90;;;;;;5066573;28;20463;-90
2023/04/11 03:09:25;;;;;;;3.37;1.50;;;8.40;99.90;;;;;;5062823;28;20459;-91
2023/04/11 03:11:51;;;;;;;2.80;1.80;;;8.50;99.90;;;;;;5063364;28;20463;-91
2023/04/11 03:14:18;;;;;;;2.60;1.63;;;8.50;99.90;;;;;;5078369;28;20968;-92
2023/04/11 03:16:45;;;;;;;3.00;1.60;;;8.50;99.90;;;;;;5069608;28;20456;-91
2023/04/11 03:19:11;;;;;;;4.90;1.70;;;8.60;99.90;;;;;;5054745;28;20468;-90
2023/04/11 03:21:38;;;;;;;3.83;1.60;;;8.60;99.90;;;;;;5060813;28;20538;-91
2023/04/11 03:24:07;;;;;;;4.33;1.63;;;8.60;99.90;;;;;;5058146;28;20495;-90
2023/04/11 03:26:33;;;;;;;2.97;2.07;;;8.60;99.90;;;;;;5061411;28;20714;-91
2023/04/11 03:29:00;;;;;;;2.27;1.73;;;8.50;99.90;;;;;;5055077;28;20521;-89
2023/04/11 03:31:29;;;;;;;4.00;1.90;;;8.60;99.90;;;;;;5075192;28;20508;-91
2023/04/11 03:33:55;;;;;;;2.73;1.50;;;8.50;99.90;;;;;;5066436;28;20456;-88
2023/04/11 03:36:22;;;;;;;3.77;1.60;;;8.50;99.90;;;;;;5058402;28;20833;-90
2023/04/11 03:38:49;;;;;;;3.00;1.70;;;8.40;99.90;;;;;;5066675;28;20483;-91
2023/04/11 03:41:18;;;;;;;7.13;1.83;;;8.40;99.90;;;;;;5066391;28;21017;-91
2023/04/11 03:43:44;;;;;;;2.70;1.80;;;8.40;99.90;;;;;;5074440;28;20745;-90
2023/04/11 03:46:11;;;;;;;2.90;1.60;;;8.40;99.90;;;;;;5071859;28;20456;-90
2023/04/11 03:48:38;;;;;;;5.17;1.90;;;8.40;99.90;;;;;;5053966;28;20503;-90
2023/04/11 03:51:05;;;;;;;2.90;1.53;;;8.40;99.90;;;;;;5060601;28;20510;-90
2023/04/11 03:53:32;;;;;;;4.30;1.60;;;8.40;99.90;;;;;;5054043;28;20476;-91
2023/04/11 03:56:00;;;;;;;2.03;1.90;;;8.40;99.90;;;;;;5063022;28;20460;-89
2023/04/11 03:58:28;;;;;;;7.70;1.50;;;8.40;99.90;;;;;;5061899;28;20502;-90
2023/04/11 04:00:55;;;;;;;6.47;2.30;;;8.30;99.90;;;;;;5070135;28;20467;-90
2023/04/11 04:03:21;;;;;;;3.33;2.10;;;8.30;99.90;;;;;;5070550;28;20498;-90
2023/04/11 04:05:48;;;;;;;1.83;1.70;;;8.30;99.90;;;;;;5062377;28;20939;-91
2023/04/11 04:08:15;;;;;;;4.80;1.80;;;8.20;99.90;;;;;;5064509;28;20893;-89
2023/04/11 04:10:41;;;;;;;2.93;1.70;;;8.20;99.90;;;;;;5069220;28;20482;-89
2023/04/11 04:13:08;;;;;;;5.13;1.70;;;8.10;99.90;;;;;;5055530;28;20491;-91
2023/04/11 04:15:36;;;;;;;3.67;1.60;;;8.20;99.90;;;;;;5058672;28;20513;-91
2023/04/11 04:18:03;;;;;;;3.40;1.90;;;8.20;99.90;;;;;;5065240;28;20504;-90
2023/04/11 04:20:30;;;;;;;2.33;1.77;;;8.20;99.90;;;;;;5067453;28;20578;-91
2023/04/11 04:22:56;;;;;;;4.63;1.77;;;8.20;99.90;;;;;;5074844;28;20476;-90
2023/04/11 04:25:23;;;;;;;1.90;1.70;;;8.10;99.90;;;;;;5055231;28;20922;-91
2023/04/11 04:27:52;;;;;;;3.97;2.30;;;8.10;99.90;;;;;;5055073;28;20486;-91
2023/04/11 04:30:20;;;;;;;3.60;1.73;;;8.10;99.90;;;;;;5063453;28;20471;-91
2023/04/11 04:32:53;;;;;;;2.83;1.77;;;8.10;99.90;;;;;;5054647;28;21012;-90
2023/04/11 04:35:20;;;;;;;7.03;2.40;;;8.10;99.90;;;;;;5058239;28;20451;-91
2023/04/11 04:37:46;;;;;;;11.80;2.17;;;8.10;99.90;;;;;;5066455;28;20533;-90
2023/04/11 04:40:14;;;;;;;2.57;1.90;;;8.10;99.90;;;;;;5055738;28;20456;-91
2023/04/11 04:42:42;;;;;;;7.40;1.90;;;8.10;99.90;;;;;;5054225;28;21024;-90
2023/04/11 04:45:09;;;;;;;6.43;1.90;;;8.10;99.90;;;;;;5055370;28;20477;-89
2023/04/11 04:47:37;;;;;;;6.90;1.83;;;8.10;99.90;;;;;;5068929;28;20503;-91
2023/04/11 04:50:06;;;;;;;5.50;1.80;;;8.20;99.90;;;;;;5062244;28;20451;-89
2023/04/11 04:52:33;;;;;;;5.53;2.03;;;8.20;99.90;;;;;;5062135;28;20464;-91
2023/04/11 04:55:00;;;;;;;6.13;1.80;;;8.30;99.90;;;;;;5053155;28;20460;-89
2023/04/11 04:57:27;;;;;;;4.03;1.90;;;8.20;99.90;;;;;;5062139;28;20483;-90
2023/04/11 04:59:54;;;;;;;7.13;2.00;;;8.30;99.90;;;;;;5062083;28;20456;-90
2023/04/11 05:02:21;;;;;;;4.80;1.80;;;8.30;99.90;;;;;;5056923;28;20502;-91
2023/04/11 05:04:49;;;;;;;3.80;2.07;;;8.30;99.90;;;;;;5058865;28;20479;-91
2023/04/11 05:07:17;;;;;;;12.20;2.83;;;8.30;99.90;;;;;;5061783;28;20480;-90
2023/04/11 05:09:44;;;;;;;6.50;2.23;;;8.30;99.90;;;;;;5062425;28;20462;-90
2023/04/11 05:12:12;;;;;;;4.97;2.10;;;8.30;99.90;;;;;;5063992;28;20462;-90
2023/04/11 05:14:39;;;;;;;15.13;3.03;;;8.30;99.90;;;;;;5074573;28;20455;-90
2023/04/11 05:17:06;;;;;;;3.60;1.80;;;8.30;99.90;;;;;;5075697;28;20530;-91
2023/04/11 05:19:32;;;;;;;3.93;2.20;;;8.20;99.90;;;;;;5073966;28;20457;-90
2023/04/11 05:21:59;;;;;;;4.53;2.43;;;8.20;99.90;;;;;;5065314;28;20484;-90
2023/04/11 05:24:27;;;;;;;4.07;2.33;;;8.20;99.90;;;;;;5053918;28;20512;-89
2023/04/11 05:26:55;;;;;;;5.20;2.47;;;8.20;99.90;;;;;;5054329;28;20456;-90
2023/04/11 05:29:22;;;;;;;5.17;2.27;;;8.20;99.90;;;;;;5062700;28;20463;-91
2023/04/11 05:31:48;;;;;;;9.40;2.37;;;8.20;99.90;;;;;;5063171;28;20487;-90
2023/04/11 05:34:15;;;;;;;11.37;2.50;;;8.30;99.90;;;;;;5066564;28;20481;-89
2023/04/11 05:36:42;;;;;;;6.80;2.30;;;8.30;99.90;;;;;;5076708;28;20469;-91
2023/04/11 05:39:08;;;;;;;7.93;2.07;;;8.30;99.90;;;;;;5065124;28;20475;-90
2023/04/11 05:41:36;;;;;;;9.00;2.57;;;8.40;99.90;;;;;;5067166;28;20465;-90
2023/04/11 05:44:03;;;;;;;3.63;2.33;;;8.50;99.90;;;;;;5082596;28;20431;-90
2023/04/11 05:46:30;;;;;;;5.57;2.40;;;8.70;99.90;;;;;;5084364;28;20472;-91
2023/04/11 05:48:57;;;;;;;9.00;2.47;;;8.90;99.90;;;;;;5070034;28;20522;-90
2023/04/11 05:51:25;;;;;;;12.73;2.57;;;9.10;99.90;;;;;;5054295;28;20579;-90
2023/04/11 05:53:52;;;;;;;6.50;2.00;;;9.30;99.90;;;;;;5055833;28;20538;-90
2023/04/11 05:56:19;;;;;;;8.20;2.80;;;9.40;99.90;;;;;;5065595;28;20574;-90
2023/04/11 05:58:47;;;;;;;6.30;2.43;;;9.60;99.90;;;;;;5075347;28;20475;-91
2023/04/11 06:01:17;;;;;;;10.63;2.63;;;9.80;99.90;;;;;;5075034;28;20462;-90
2023/04/11 06:03:44;;;;;;;4.93;2.40;;;10.10;99.90;;;;;;5069995;28;20476;-90
2023/04/11 06:06:11;;;;;;;6.30;2.60;;;10.30;99.90;;;;;;5072342;28;20452;-90
2023/04/11 06:08:38;;;;;;;12.80;2.93;;;10.50;99.90;;;;;;5075503;28;20467;-91
2023/04/11 06:11:05;;;;;;;9.60;2.57;;;10.40;99.90;;;;;;5057888;28;20515;-89
2023/04/11 06:13:32;;;;;;;8.30;2.70;;;10.10;99.90;;;;;;5058412;28;20502;-91
2023/04/11 06:16:01;;;;;;;7.00;2.53;;;9.70;99.90;;;;;;5075132;28;20452;-90
2023/04/11 06:18:28;;;;;;;13.00;2.87;;;9.50;99.90;;;;;;5054790;28;20484;-90
2023/04/11 06:20:55;;;;;;;7.80;2.40;;;9.60;99.90;;;;;;5064202;28;21002;-91
2023/04/11 06:23:21;;;;;;;17.27;4.80;;;10.00;99.90;;;;;;5056765;28;20488;-90
2023/04/11 06:25:48;;;;;;;10.90;2.90;;;10.40;99.90;;;;;;5074428;28;20467;-91
2023/04/11 06:28:15;;;;;;;7.83;2.87;;;10.30;99.90;;;;;;5055497;28;20484;-89
2023/04/11 06:30:42;;;;;;;12.07;3.00;;;10.00;99.90;;;;;;5054027;28;20449;-90
2023/04/11 06:33:10;;;;;;;5.83;2.83;;;9.80;99.90;;;;;;5066946;28;20455;-89
2023/04/11 06:35:36;;;;;;;6.63;2.53;;;9.70;99.90;;;;;;5057518;28;20551;-91
2023/04/11 06:38:03;;;;;;;5.93;2.67;;;9.60;99.90;;;;;;5058061;28;20475;-91
2023/04/11 06:40:30;;;;;;;5.87;2.40;;;9.60;99.90;;;;;;5053629;28;20801;-90
2023/04/11 06:42:58;;;;;;;7.07;2.80;;;10.00;99.90;;;;;;5063449;28;20551;-91
2023/04/11 06:45:25;;;;;;;8.53;2.20;;;10.00;99.90;;;;;;5066227;28;20460;-91
2023/04/11 06:47:52;;;;;;;10.93;4.20;;;10.30;99.90;;;;;;5064436;28;20541;-90
2023/04/11 06:50:20;;;;;;;17.30;3.80;;;10.60;99.90;;;;;;5068819;28;20503;-91
2023/04/11 06:52:47;;;;;;;9.43;2.43;;;10.90;99.90;;;;;;5061274;28;20449;-92
2023/04/11 06:55:14;;;;;;;9.60;3.07;;;11.30;99.90;;;;;;5066834;28;20452;-92
2023/04/11 06:57:40;;;;;;;5.20;2.70;;;11.50;99.90;;;;;;5060027;28;20854;-91
2023/04/11 07:00:10;;;;;;;7.50;2.93;;;11.60;99.90;;;;;;5059230;28;20456;-90
2023/04/11 07:02:37;;;;;;;11.83;3.20;;;11.70;99.90;;;;;;5076829;28;20574;-90
2023/04/11 07:05:05;;;;;;;13.60;2.90;;;11.70;99.90;;;;;;5067059;28;20911;-90
2023/04/11 07:07:33;;;;;;;9.40;3.47;;;11.80;99.90;;;;;;5057391;28;20484;-90
2023/04/11 07:09:59;;;;;;;8.33;2.40;;;11.70;99.90;;;;;;5073661;28;20456;-90
2023/04/11 07:12:26;;;;;;;8.53;2.53;;;11.70;99.90;;;;;;5058530;28;20967;-91
2023/04/11 07:14:53;;;;;;;14.10;2.60;;;11.60;99.90;;;;;;5064969;28;20466;-90
2023/04/11 07:17:19;;;;;;;11.63;3.00;;;11.50;99.90;;;;;;5068918;28;20985;-91
2023/04/11 07:19:46;;;;;;;11.97;2.80;;;11.60;99.90;;;;;;5071149;28;20472;-90
2023/04/11 07:22:13;;;;;;;13.20;3.20;;;11.70;99.90;;;;;;5073602;28;20501;-90
2023/04/11 07:24:42;;;;;;;6.93;2.67;;;11.80;99.90;;;;;;5070764;28;20463;-90
2023/04/11 07:27:09;;;;;;;7.80;2.33;;;11.80;99.90;;;;;;5063580;28;20465;-89
2023/04/11 07:29:35;;;;;;;9.60;2.47;;;11.90;99.90;;;;;;5057219;28;20465;-91
2023/04/11 07:32:02;;;;;;;9.50;2.90;;;12.10;99.90;;;;;;5065424;28;20921;-90
2023/04/11 07:34:29;;;;;;;14.47;3.23;;;11.80;99.90;;;;;;5075025;28;20453;-89
2023/04/11 07:36:59;;;;;;;13.80;3.10;;;11.70;99.90;;;;;;5075146;28;20475;-91
2023/04/11 07:39:26;;;;;;;8.63;2.73;;;11.70;99.90;;;;;;5074042;28;20463;-90
2023/04/11 07:41:55;;;;;;;17.80;3.50;;;11.50;99.90;;;;;;5063961;28;20943;-90
2023/04/11 07:44:21;;;;;;;12.77;3.70;;;11.70;99.90;;;;;;5059853;28;20489;-90
2023/04/11 07:46:48;;;;;;;13.57;3.20;;;11.60;99.90;;;;;;5068351;28;20502;-90
2023/04/11 07:49:15;;;;;;;9.90;2.40;;;11.70;99.90;;;;;;5059258;28;20461;-90
2023/04/11 07:51:41;;;;;;;12.17;2.90;;;11.30;99.90;;;;;;5070618;28;20445;-90
2023/04/11 07:54:08;;;;;;;6.13;2.50;;;11.10;99.90;;;;;;5068506;28;20717;-89
2023/04/11 07:56:35;;;;;;;9.57;2.23;;;11.30;99.90;;;;;;5069298;28;20449;-90
2023/04/11 07:59:03;;;;;;;13.67;2.60;;;11.70;99.90;;;;;;5069517;28;20535;-90
2023/04/11 08:01:30;;;;;;;13.03;2.77;;;11.60;99.90;;;;;;5055775;28;20446;-90
2023/04/11 08:03:57;;;;;;;8.40;2.57;;;11.90;99.90;;;;;;5065583;28;20514;-91
2023/04/11 08:06:23;;;;;;;9.63;3.00;;;12.10;99.90;;;;;;5056538;28;20457;-90
2023/04/11 08:08:51;;;;;;;10.10;4.00;;;12.40;99.90;;;;;;5062489;28;21010;-90
2023/04/11 08:11:18;;;;;;;8.53;3.00;;;12.20;99.90;;;;;;5068993;28;20848;-90
2023/04/11 08:13:44;;;;;;;11.23;2.67;;;12.10;99.90;;;;;;5076095;28;20456;-91
2023/04/11 08:16:14;;;;;;;12.53;4.03;;;12.10;99.90;;;;;;5075560;28;20484;-90
2023/04/11 08:18:41;;;;;;;8.47;2.93;;;12.40;99.90;;;;;;5069132;28;20581;-90
2023/04/11 08:21:10;;;;;;;12.97;3.20;;;12.20;99.90;;;;;;5068439;28;20484;-90
2023/04/11 08:23:38;;;;;;;8.50;2.90;;;12.10;99.90;;;;;;5064206;28;20767;-90
2023/04/11 08:26:05;;;;;;;6.80;2.20;;;12.30;99.90;;;;;;5064541;28;20510;-91
2023/04/11 08:28:32;;;;;;;7.00;2.80;;;12.60;99.90;;;;;;5073205;28;20465;-90
2023/04/11 08:31:01;;;;;;;8.10;2.40;;;13.00;99.90;;;;;;5062132;28;20452;-90
2023/04/11 08:33:29;;;;;;;11.70;2.40;;;13.10;99.90;;;;;;5066601;28;20457;-89
2023/04/11 08:35:55;;;;;;;8.17;2.70;;;13.10;99.90;;;;;;5063059;28;20449;-90
2023/04/11 08:38:22;;;;;;;9.13;2.83;;;12.50;99.90;;;;;;5065652;28;20483;-90
2023/04/11 08:40:49;;;;;;;5.13;2.43;;;12.60;99.90;;;;;;5056748;28;20478;-90
2023/04/11 08:43:16;;;;;;;5.10;2.30;;;12.70;99.90;;;;;;5065877;28;20491;-92
2023/04/11 08:45:43;;;;;;;5.10;2.50;;;13.10;99.90;;;;;;5097726;28;20451;-92
2023/04/11 08:48:11;;;;;;;9.00;2.60;;;12.60;99.90;;;;;;5089628;28;20537;-91
2023/04/11 08:50:40;;;;;;;6.43;2.13;;;12.60;99.90;;;;;;5072546;28;20457;-91
2023/04/11 08:53:08;;;;;;;9.10;3.03;;;12.70;99.90;;;;;;5067623;28;20467;-90
2023/04/11 08:55:34;;;;;;;10.17;3.33;;;12.50;99.90;;;;;;5067014;28;20453;-91
2023/04/11 08:58:02;;;;;;;8.73;2.80;;;12.20;99.90;;;;;;5074494;28;20488;-90
2023/04/11 09:00:31;;;;;;;6.67;2.27;;;12.10;99.90;;;;;;5058521;28;20458;-90
2023/04/11 09:02:59;;;;;;;7.43;2.63;;;12.10;99.90;;;;;;5075903;28;20460;-91
2023/04/11 09:05:28;;;;;;;11.53;3.60;;;12.40;99.90;;;;;;5066376;28;21029;-91
2023/04/11 09:07:57;;;;;;;7.67;2.53;;;12.60;99.90;;;;;;5072283;28;20476;-90
2023/04/11 09:10:25;;;;;;;8.03;2.50;;;13.00;99.90;;;;;;5077728;28;20539;-91
2023/04/11 09:12:52;;;;;;;8.03;2.70;;;13.00;99.90;;;;;;5072957;28;20481;-91
2023/04/11 09:15:20;;;;;;;8.30;2.40;;;13.00;99.90;;;;;;5072312;28;20457;-90
2023/04/11 09:17:47;;;;;;;7.40;2.80;;;12.90;99.90;;;;;;5055323;28;20523;-90
2023/04/11 09:20:18;;;;;;;6.27;2.50;;;12.50;99.90;;;;;;5056544;28;20460;-89
2023/04/11 09:22:45;;;;;;;4.10;2.07;;;12.90;99.90;;;;;;5061391;28;20453;-90
2023/04/11 09:25:13;;;;;;;4.40;1.90;;;13.30;99.90;;;;;;5059677;28;20840;-91
2023/04/11 09:27:40;;;;;;;4.33;2.50;;;13.80;99.90;;;;;;5048309;28;20824;-91
2023/04/11 09:30:18;;;;;;;9.70;2.60;;;14.40;99.90;;;;;;5056089;28;20498;-90
2023/04/11 09:32:47;;;;;;;5.90;2.10;;;14.80;99.90;;;;;;5059954;28;20501;-89
2023/04/11 09:35:15;;;;;;;5.63;2.13;;;14.80;99.90;;;;;;5058654;28;20441;-90
2023/04/11 09:37:45;;;;;;;6.23;2.47;;;14.50;99.90;;;;;;5068524;28;20468;-90
2023/04/11 09:40:15;;;;;;;13.40;2.50;;;14.10;99.90;;;;;;5069085;28;20745;-89
2023/04/11 09:42:42;;;;;;;7.50;2.20;;;13.90;99.90;;;;;;5061681;28;20901;-90
2023/04/11 09:45:19;;;;;;;8.30;2.13;;;13.80;99.90;;;;;;5076111;28;20518;-90
2023/04/11 09:47:47;;;;;;;5.27;2.10;;;14.10;99.90;;;;;;5071447;28;20473;-90
2023/04/11 09:50:15;;;;;;;5.30;1.90;;;14.10;99.90;;;;;;5054202;28;20528;-88
2023/04/11 09:52:43;;;;;;;7.20;2.60;;;14.20;99.90;;;;;;5056219;28;20449;-90
2023/04/11 09:55:11;;;;;;;3.03;2.10;;;14.40;99.90;;;;;;5062243;28;20460;-91
2023/04/11 09:57:44;;;;;;;10.93;2.73;;;14.30;99.90;;;;;;5055501;28;20497;-91
2023/04/11 10:00:14;;;;;;;4.10;2.23;;;14.30;99.90;;;;;;5054463;28;20503;-91
2023/04/11 10:02:41;;;;;;;5.83;2.40;;;14.30;99.90;;;;;;5062812;28;20939;-89
2023/04/11 10:05:09;;;;;;;8.37;3.13;;;14.20;99.90;;;;;;5054518;28;20575;-91
2023/04/11 10:07:44;;;;;;;9.10;2.90;;;14.20;99.90;;;;;;5065834;28;20472;-91
2023/04/11 10:10:16;;;;;;;9.67;2.87;;;13.40;99.90;;;;;;5074803;28;21001;-90
2023/04/11 10:12:44;;;;;;;7.77;2.50;;;12.50;99.90;;;;;;5052094;28;20456;-90
2023/04/11 10:15:12;;;;;;;6.20;2.70;;;11.80;99.90;;;;;;5067069;28;20444;-91
2023/04/11 10:17:39;;;;;;;12.10;2.93;;;11.20;99.90;;;;;;5059675;28;20860;-92
2023/04/11 10:20:42;;;;;;;4.83;2.30;;;11.00;99.90;;;;;;5075072;28;20483;-90
2023/04/11 10:23:09;;;;;;;4.40;2.30;;;10.90;99.90;;;;;;5059500;28;20478;-91
2023/04/11 10:25:52;;;;;;;8.17;4.37;;;10.90;99.90;;;;;;5057559;28;20456;-91
2023/04/11 10:28:37;;;;;;;3.97;3.07;;;11.30;99.90;;;;;;5074712;28;20498;-91
2023/04/11 10:31:07;;;;;;;6.97;2.70;;;12.10;99.90;;;;;;5064777;28;20450;-91
2023/04/11 10:33:36;;;;;;;5.10;2.57;;;12.50;99.90;;;;;;5056307;28;20488;-92
2023/04/11 10:36:05;;;;;;;4.13;2.50;;;13.00;99.90;;;;;;5056843;28;20461;-91
2023/04/11 10:38:48;;;;;;;6.23;2.30;;;13.30;99.90;;;;;;5064174;28;20534;-91
2023/04/11 10:41:16;;;;;;;6.43;2.20;;;13.50;99.90;;;;;;5064446;28;20452;-91
2023/04/11 10:43:44;;;;;;;5.63;2.47;;;13.80;99.90;;;;;;5074183;28;21040;-92
2023/04/11 10:46:18;;;;;;;5.30;2.40;;;14.20;99.90;;;;;;5060726;28;20877;-92
2023/04/11 10:48:57;;;;;;;6.33;2.83;;;14.80;99.90;;;;;;5055594;28;20536;-91
2023/04/11 10:51:24;;;;;;;5.83;2.33;;;15.20;99.90;;;;;;5062381;28;20444;-91
2023/04/11 10:53:52;;;;;;;4.70;2.40;;;15.70;99.90;;;;;;5058968;28;20509;-91
2023/04/11 10:56:52;;;;;;;4.43;2.20;;;16.10;99.90;;;;;;5058386;28;20959;-91
2023/04/11 10:59:52;;;;;;;8.43;2.50;;;16.40;99.90;;;;;;5071915;28;20461;-91
2023/04/11 11:02:20;;;;;;;5.67;2.37;;;16.40;99.90;;;;;;5058291;28;20491;-90
2023/04/11 11:04:48;;;;;;;8.10;2.47;;;16.70;99.90;;;;;;5066611;28;20537;-91
2023/04/11 11:07:16;;;;;;;5.30;2.13;;;16.90;99.90;;;;;;5074214;28;20823;-92
2023/04/11 11:09:49;;;;;;;5.87;2.27;;;17.10;99.90;;;;;;5063274;28;20471;-92
2023/04/11 11:12:17;;;;;;;5.50;2.23;;;17.40;99.90;;;;;;5056624;28;20442;-89
2023/04/11 11:14:45;;;;;;;3.80;2.00;;;17.30;99.90;;;;;;5057098;28;20511;-91
2023/04/11 11:17:13;;;;;;;4.67;2.30;;;17.30;99.90;;;;;;5057634;28;20502;-91
2023/04/11 11:19:45;;;;;;;5.97;2.27;;;17.30;99.90;;;;;;5059934;28;20449;-91
2023/04/11 11:22:15;;;;;;;4.83;3.20;;;16.80;99.90;;;;;;5059917;28;20687;-91
2023/04/11 11:24:41;;;;;;;5.83;1.90;;;16.30;99.90;;;;;;5059515;28;20485;-90
2023/04/11 11:27:18;;;;;;;7.27;1.90;;;16.00;99.90;;;;;;5070060;28;20447;-91
2023/04/11 11:29:45;;;;;;;2.57;1.40;;;15.40;99.90;;;;;;5053307;28;20507;-92
2023/04/11 11:32:21;;;;;;;6.00;1.80;;;15.50;99.90;;;;;;5061774;28;20445;-90
2023/04/11 11:34:51;;;;;;;2.60;2.10;;;15.10;99.90;;;;;;5056994;28;20479;-90
2023/04/11 11:37:18;;;;;;;3.70;1.67;;;15.40;99.90;;;;;;5064626;28;20511;-91
2023/04/11 11:39:45;;;;;;;4.83;3.20;;;15.60;99.90;;;;;;5079638;28;20437;-91
2023/04/11 11:42:12;;;;;;;4.87;1.87;;;15.80;99.90;;;;;;5075577;28;20435;-93
2023/04/11 11:44:39;;;;;;;3.40;1.90;;;16.40;99.90;;;;;;5098747;28;20494;-92
2023/04/11 11:47:07;;;;;;;3.30;2.00;;;16.90;99.90;;;;;;5090011;28;20443;-90
2023/04/11 11:49:44;;;;;;;7.33;2.10;;;16.80;99.90;;;;;;5057117;28;20537;-91
2023/04/11 11:52:13;;;;;;;6.33;1.87;;;16.40;99.90;;;;;;5053366;28;20419;-91
2023/04/11 11:54:44;;;;;;;3.10;1.90;;;16.50;99.90;;;;;;5077661;28;20535;-91
2023/04/11 11:57:10;;;;;;;2.00;1.70;;;16.60;99.90;;;;;;5079797;28;20528;-91
2023/04/11 11:59:37;;;;;;;5.80;1.80;;;16.80;99.90;;;;;;5077774;28;20451;-90
2023/04/11 12:02:04;;;;;;;4.97;2.37;;;16.90;99.90;;;;;;5070421;28;20436;-90
2023/04/11 12:04:31;;;;;;;7.20;2.97;;;16.90;99.90;;;;;;5072000;28;20474;-91
2023/04/11 12:07:07;;;;;;;4.03;1.97;;;16.70;99.90;;;;;;5075865;28;20456;-91
2023/04/11 12:09:35;;;;;;;3.07;2.10;;;16.60;99.90;;;;;;5076578;28;20488;-91
2023/04/11 12:12:02;;;;;;;4.90;2.07;;;16.70;99.90;;;;;;5062694;28;20457;-91
2023/04/11 12:14:29;;;;;;;5.53;1.73;;;16.30;99.90;;;;;;5076487;28;20694;-91
2023/04/11 12:16:55;;;;;;;3.23;1.50;;;16.00;99.90;;;;;;5059197;28;20477;-90
2023/04/11 12:19:23;;;;;;;4.63;2.13;;;16.10;99.90;;;;;;5058837;28;20462;-89
2023/04/11 12:21:50;;;;;;;2.50;1.80;;;16.30;99.90;;;;;;5067681;28;20437;-91
2023/04/11 12:24:17;;;;;;;3.03;1.63;;;16.50;99.90;;;;;;5058195;28;20998;-90
2023/04/11 12:26:45;;;;;;;5.07;1.93;;;16.90;99.90;;;;;;5079557;28;20441;-91
2023/04/11 12:29:12;;;;;;;2.17;1.80;;;17.10;99.90;;;;;;5063927;28;20449;-90
2023/04/11 12:31:39;;;;;;;4.00;1.80;;;16.90;99.90;;;;;;5077476;28;20462;-91
2023/04/11 12:34:05;;;;;;;5.10;2.23;;;16.60;99.90;;;;;;5072737;28;20766;-91
2023/04/11 12:36:35;;;;;;;2.83;1.53;;;16.10;99.90;;;;;;5071994;28;20425;-91
2023/04/11 12:39:02;;;;;;;3.70;1.73;;;15.80;99.90;;;;;;5077484;28;20455;-91
2023/04/11 12:41:29;;;;;;;4.10;1.60;;;15.90;99.90;;;;;;5080136;28;20422;-91
2023/04/11 12:44:00;;;;;;;8.53;1.60;;;16.40;99.90;;;;;;5083251;28;20480;-91
2023/04/11 12:46:27;;;;;;;2.90;1.80;;;16.30;97.80;;;;;;5084786;28;20433;-90
2023/04/11 12:48:53;;;;;;;3.80;1.80;;;16.10;97.50;;;;;;5081356;28;20490;-91
2023/04/11 12:51:20;;;;;;;4.33;1.73;;;16.00;98.80;;;;;;5096582;28;20451;-91
2023/04/11 12:53:47;;;;;;;6.23;2.00;;;15.80;99.40;;;;;;5095960;28;20454;-90